Time;durP1;ratioP1;P1;durP2;ratioP2;P2;SDS_P1;SDS_P2;PMS_P1;PMS_P2;Temp;Humidity;BMP_temperature;BMP_pressure;BME280_temperature;BME280_humidity;BME280_pressure;Samples;Min_cycle;Max_cycle;Signal;HPM_P1;HPM_P2
2022/05/11 00:00:43;;;;;;;13.63;3.70;;;;;;;13.85;96.14;98282.16;4919743;29;20043;-86
2022/05/11 00:03:10;;;;;;;13.73;3.70;;;;;;;14.19;95.66;98257.69;4927836;29;20024;-86
2022/05/11 00:05:36;;;;;;;16.90;3.47;;;;;;;14.00;95.98;98272.94;4924808;29;20505;-86
2022/05/11 00:08:03;;;;;;;10.77;3.10;;;;;;;14.07;95.03;98263.03;4921139;29;20038;-86
2022/05/11 00:10:30;;;;;;;11.90;3.72;;;;;;;13.53;96.11;98258.06;4918977;29;20131;-85
2022/05/11 00:12:57;;;;;;;14.50;3.67;;;;;;;14.08;96.15;98264.63;4920651;29;20035;-86
2022/05/11 00:15:24;;;;;;;15.15;3.65;;;;;;;13.63;96.44;98268.81;4922752;29;20038;-84
2022/05/11 00:17:51;;;;;;;15.10;3.60;;;;;;;14.05;95.76;98249.28;4907103;29;20036;-84
2022/05/11 00:20:19;;;;;;;11.40;3.30;;;;;;;13.92;96.75;98266.22;4924701;29;20040;-84
2022/05/11 00:22:44;;;;;;;16.02;4.50;;;;;;;13.42;96.97;98264.94;4925872;29;20087;-84
2022/05/11 00:25:14;;;;;;;14.43;3.05;;;;;;;13.47;97.06;98236.06;4925577;29;20039;-85
2022/05/11 00:27:39;;;;;;;14.07;2.90;;;;;;;13.89;96.94;98261.41;4924522;29;20067;-86
2022/05/11 00:30:06;;;;;;;12.15;2.78;;;;;;;13.67;97.14;98253.31;4922955;29;20054;-86
2022/05/11 00:32:32;;;;;;;12.23;3.70;;;;;;;13.62;97.67;98250.59;4927360;29;20028;-85
2022/05/11 00:34:58;;;;;;;9.95;3.97;;;;;;;13.66;97.98;98235.91;4927348;29;20082;-85
2022/05/11 00:37:24;;;;;;;14.35;3.25;;;;;;;13.87;97.00;98234.47;4924373;29;20036;-85
2022/05/11 00:39:50;;;;;;;9.50;3.25;;;;;;;14.08;97.55;98232.97;4924363;29;20032;-84
2022/05/11 00:42:16;;;;;;;14.63;3.40;;;;;;;14.16;97.03;98223.09;4929568;29;20486;-84
2022/05/11 00:44:42;;;;;;;12.20;3.60;;;;;;;13.73;98.86;98212.81;4920437;29;20024;-83
2022/05/11 00:47:23;;;;;;;17.05;3.80;;;;;;;13.53;99.38;98221.16;4922982;29;20035;-83
2022/05/11 00:50:00;;;;;;;12.55;3.50;;;;;;;13.42;99.69;98204.31;4919959;29;20106;-84
2022/05/11 00:52:49;;;;;;;9.85;3.55;;;;;;;13.56;99.89;98232.03;4919726;29;20039;-83
2022/05/11 00:55:23;;;;;;;8.15;2.97;;;;;;;13.50;100.00;98214.50;4924246;29;20075;-82
2022/05/11 00:57:58;;;;;;;19.15;3.58;;;;;;;13.82;99.26;98226.44;4924649;29;20039;-84
2022/05/11 01:00:25;;;;;;;10.48;3.10;;;;;;;13.12;100.00;98226.34;4924438;29;20161;-84
2022/05/11 01:02:57;;;;;;;15.43;3.72;;;;;;;12.91;100.00;98214.59;4921187;29;20028;-83
2022/05/11 01:05:22;;;;;;;12.63;3.70;;;;;;;12.62;100.00;98212.63;4923209;29;20032;-82
2022/05/11 01:07:50;;;;;;;15.00;3.47;;;;;;;12.84;100.00;98204.16;4925286;29;20024;-83
2022/05/11 01:10:15;;;;;;;12.02;2.88;;;;;;;12.40;100.00;98193.97;4912122;29;20038;-82
2022/05/11 01:12:46;;;;;;;18.20;3.97;;;;;;;12.77;100.00;98206.09;4917131;29;20402;-81
2022/05/11 01:15:14;;;;;;;12.02;3.15;;;;;;;12.79;100.00;98196.94;4925976;29;20035;-82
2022/05/11 01:17:40;;;;;;;8.25;2.88;;;;;;;12.77;100.00;98201.66;4903839;29;20047;-82
2022/05/11 01:20:09;;;;;;;15.15;3.78;;;;;;;12.65;100.00;98195.56;4920134;29;20031;-82
2022/05/11 01:22:54;;;;;;;18.52;3.95;;;;;;;12.75;100.00;98200.25;4926014;29;20020;-82
2022/05/11 01:25:20;;;;;;;10.43;3.28;;;;;;;12.83;100.00;98199.94;4924614;29;20122;-83
2022/05/11 01:27:47;;;;;;;12.88;3.25;;;;;;;12.74;100.00;98198.66;4927044;29;20036;-83
2022/05/11 01:30:17;;;;;;;15.52;3.80;;;;;;;12.52;100.00;98180.81;4924573;29;20039;-81
2022/05/11 01:32:50;;;;;;;12.23;3.08;;;;;;;12.43;100.00;98183.78;4916645;29;20135;-81
2022/05/11 01:35:37;;;;;;;16.60;3.35;;;;;;;12.71;100.00;98184.16;4923774;29;20043;-82
2022/05/11 01:38:22;;;;;;;14.07;3.42;;;;;;;12.57;100.00;98173.81;4903460;29;20039;-82
2022/05/11 01:40:47;;;;;;;13.00;3.33;;;;;;;12.77;100.00;98162.16;4922345;29;20039;-82
2022/05/11 01:43:16;;;;;;;17.00;3.88;;;;;;;12.74;100.00;98167.06;4905828;29;20041;-82
2022/05/11 01:45:41;;;;;;;17.00;3.45;;;;;;;12.70;100.00;98170.16;4908746;29;20043;-82
2022/05/11 01:48:07;;;;;;;14.32;3.05;;;;;;;12.46;100.00;98150.94;4921374;29;20032;-82
2022/05/11 01:50:33;;;;;;;11.57;3.03;;;;;;;12.70;100.00;98172.78;4909771;29;20561;-83
2022/05/11 01:52:59;;;;;;;13.45;3.58;;;;;;;12.54;100.00;98161.13;4924054;29;20035;-82
2022/05/11 01:55:24;;;;;;;9.65;2.80;;;;;;;12.53;100.00;98182.41;4907399;29;20471;-82
2022/05/11 01:57:51;;;;;;;14.98;3.70;;;;;;;12.45;100.00;98165.13;4923143;29;20091;-82
2022/05/11 02:00:16;;;;;;;15.18;2.92;;;;;;;12.58;100.00;98158.84;4923319;29;20435;-82
2022/05/11 02:02:42;;;;;;;11.45;2.75;;;;;;;12.71;100.00;98165.72;4921301;29;20031;-83
2022/05/11 02:07:53;;;;;;;17.48;3.17;;;;;;;12.56;100.00;98174.88;4912834;29;20039;-83
2022/05/11 02:10:22;;;;;;;14.82;3.42;;;;;;;12.54;100.00;98155.06;4920333;29;20043;-83
2022/05/11 02:12:51;;;;;;;13.32;2.97;;;;;;;12.67;100.00;98173.25;4922312;29;20092;-82
2022/05/11 02:15:18;;;;;;;14.18;2.95;;;;;;;12.74;100.00;98167.88;4925115;29;20035;-82
2022/05/11 02:17:45;;;;;;;16.30;3.60;;;;;;;12.79;100.00;98169.84;4923355;29;20047;-83
2022/05/11 02:20:16;;;;;;;16.77;3.40;;;;;;;12.43;100.00;98149.56;4922951;29;20035;-82
2022/05/11 02:22:42;;;;;;;13.38;3.10;;;;;;;12.58;100.00;98153.59;4921319;29;20050;-82
2022/05/11 02:25:09;;;;;;;17.75;2.97;;;;;;;12.60;100.00;98161.25;4900554;29;20095;-83
2022/05/11 02:27:35;;;;;;;12.45;3.05;;;;;;;12.38;100.00;98146.84;4924241;29;20391;-83
2022/05/11 02:30:01;;;;;;;13.88;3.35;;;;;;;12.70;100.00;98157.00;4922859;29;20028;-85
2022/05/11 02:32:27;;;;;;;12.55;3.15;;;;;;;12.61;100.00;98142.59;4904727;29;20494;-83
2022/05/11 02:35:12;;;;;;;14.30;3.20;;;;;;;12.63;100.00;98135.25;4925259;29;20066;-84
2022/05/11 02:37:39;;;;;;;8.95;3.30;;;;;;;12.73;100.00;98128.59;4928454;29;20035;-84
2022/05/11 02:40:06;;;;;;;15.88;4.72;;;;;;;12.69;100.00;98139.59;4924441;29;20111;-83
2022/05/11 02:42:31;;;;;;;9.10;3.33;;;;;;;12.74;100.00;98152.06;4920155;29;20032;-83
2022/05/11 02:44:57;;;;;;;14.80;3.97;;;;;;;12.78;100.00;98153.22;4926089;29;20047;-82
2022/05/11 02:47:23;;;;;;;15.02;3.25;;;;;;;12.82;100.00;98143.81;4923334;29;20387;-83
2022/05/11 02:49:48;;;;;;;10.57;2.95;;;;;;;12.69;100.00;98146.72;4914161;29;20157;-84
2022/05/11 02:52:14;;;;;;;14.77;3.45;;;;;;;12.64;100.00;98155.28;4929418;29;20036;-84
2022/05/11 02:54:46;;;;;;;11.02;2.90;;;;;;;12.70;100.00;98148.31;4924007;29;20028;-83
2022/05/11 02:57:14;;;;;;;16.92;4.25;;;;;;;12.82;100.00;98138.56;4927751;29;20078;-83
2022/05/11 02:59:40;;;;;;;13.05;3.47;;;;;;;12.75;100.00;98132.63;4930381;29;20390;-83
2022/05/11 03:02:05;;;;;;;15.20;3.80;;;;;;;12.77;100.00;98135.81;4920401;29;20025;-83
2022/05/11 03:04:31;;;;;;;12.45;3.53;;;;;;;12.82;100.00;98124.59;4922018;29;20031;-83
2022/05/11 03:06:57;;;;;;;15.90;3.08;;;;;;;12.90;100.00;98128.72;4917853;29;20106;-83
2022/05/11 03:09:22;;;;;;;11.10;3.17;;;;;;;12.85;100.00;98122.28;4912830;29;20031;-84
2022/05/11 03:11:48;;;;;;;14.77;3.33;;;;;;;12.50;100.00;98130.22;4924412;29;20024;-83
2022/05/11 03:14:14;;;;;;;17.08;3.75;;;;;;;12.66;100.00;98126.91;4923733;29;20050;-83
2022/05/11 03:16:40;;;;;;;13.85;2.83;;;;;;;12.70;100.00;98129.88;4927161;29;20390;-83
2022/05/11 03:19:06;;;;;;;11.02;2.95;;;;;;;12.73;100.00;98115.44;4929115;29;20023;-83
2022/05/11 03:21:33;;;;;;;9.38;3.10;;;;;;;12.65;100.00;98127.94;4928853;29;20103;-83
2022/05/11 03:24:00;;;;;;;12.75;3.10;;;;;;;12.78;100.00;98115.56;4929400;29;20027;-83
2022/05/11 03:26:27;;;;;;;14.32;3.13;;;;;;;12.69;100.00;98097.47;4925723;29;20031;-83
2022/05/11 03:28:53;;;;;;;12.10;3.50;;;;;;;12.75;100.00;98110.72;4920544;29;20478;-83
2022/05/11 03:31:19;;;;;;;13.95;3.17;;;;;;;12.47;100.00;98109.63;4928373;29;20042;-84
2022/05/11 03:36:31;;;;;;;14.88;3.33;;;;;;;12.41;100.00;98104.25;4925688;29;20055;-83
2022/05/11 03:38:59;;;;;;;12.70;2.70;;;;;;;12.66;100.00;98103.19;4916904;29;20438;-83
2022/05/11 03:41:25;;;;;;;10.90;3.30;;;;;;;12.46;100.00;98105.41;4926551;29;20135;-83
2022/05/11 03:43:50;;;;;;;12.93;3.20;;;;;;;12.28;100.00;98097.41;4908519;29;20032;-84
2022/05/11 03:46:16;;;;;;;10.68;3.15;;;;;;;12.42;100.00;98099.78;4922278;29;20110;-83
2022/05/11 03:48:42;;;;;;;13.25;2.85;;;;;;;12.64;100.00;98086.84;4926433;29;20035;-83
2022/05/11 03:51:10;;;;;;;13.73;3.45;;;;;;;12.67;100.00;98099.53;4926938;29;20048;-83
2022/05/11 03:53:37;;;;;;;11.15;3.80;;;;;;;12.35;100.00;98097.25;4924203;29;20543;-84
2022/05/11 03:56:03;;;;;;;17.83;4.15;;;;;;;12.33;100.00;98091.44;4925263;29;20521;-84
2022/05/11 03:58:29;;;;;;;12.85;3.22;;;;;;;12.58;100.00;98093.03;4924861;29;20087;-84
2022/05/11 04:00:54;;;;;;;15.98;3.42;;;;;;;12.52;100.00;98086.84;4916988;29;20407;-83
2022/05/11 04:03:20;;;;;;;12.30;3.35;;;;;;;12.60;100.00;98098.06;4914140;29;20114;-83
2022/05/11 04:05:45;;;;;;;13.80;3.20;;;;;;;12.60;100.00;98088.34;4900808;29;20028;-85
2022/05/11 04:08:11;;;;;;;13.13;3.10;;;;;;;12.60;100.00;98074.38;4924732;29;20083;-83
2022/05/11 04:10:37;;;;;;;14.02;3.17;;;;;;;12.59;100.00;98070.94;4926101;29;20091;-83
2022/05/11 04:13:04;;;;;;;16.90;3.25;;;;;;;12.51;100.00;98081.81;4926038;29;20414;-83
2022/05/11 04:15:30;;;;;;;17.90;3.33;;;;;;;12.32;100.00;98066.16;4927247;29;20115;-84
2022/05/11 04:17:56;;;;;;;7.90;3.10;;;;;;;12.38;100.00;98070.50;4919020;29;20047;-83
2022/05/11 04:20:22;;;;;;;11.15;3.40;;;;;;;12.56;100.00;98071.38;4910905;29;20050;-83
2022/05/11 04:22:48;;;;;;;12.35;3.03;;;;;;;12.48;100.00;98069.13;4927622;29;20024;-83
2022/05/11 04:25:16;;;;;;;17.80;3.65;;;;;;;12.62;100.00;98070.47;4924560;29;20043;-84
2022/05/11 04:27:44;;;;;;;12.05;3.67;;;;;;;12.55;100.00;98069.78;4903191;29;20099;-82
2022/05/11 04:30:11;;;;;;;13.05;3.53;;;;;;;12.66;100.00;98053.19;4911929;29;20446;-85
2022/05/11 04:32:37;;;;;;;14.95;3.45;;;;;;;12.62;100.00;98065.22;4926291;29;20115;-84
2022/05/11 04:35:04;;;;;;;15.85;3.35;;;;;;;12.55;100.00;98054.00;4924518;29;20118;-85
2022/05/11 04:37:29;;;;;;;16.35;3.25;;;;;;;12.36;100.00;98048.06;4926167;29;20036;-84
2022/05/11 04:39:55;;;;;;;14.50;3.63;;;;;;;12.42;100.00;98040.06;4926094;29;20360;-84
2022/05/11 04:42:21;;;;;;;19.52;3.72;;;;;;;12.51;100.00;98053.69;4924772;29;20080;-84
2022/05/11 04:44:46;;;;;;;14.43;3.17;;;;;;;12.61;100.00;98055.72;4906477;29;20032;-85
2022/05/11 04:47:14;;;;;;;11.55;3.72;;;;;;;12.61;100.00;98047.00;4923576;29;20034;-84
2022/05/11 04:49:43;;;;;;;16.35;3.60;;;;;;;12.31;100.00;98058.50;4912556;29;20131;-86
2022/05/11 04:52:15;;;;;;;11.93;3.80;;;;;;;12.49;100.00;98052.28;4924897;29;20036;-82
2022/05/11 04:54:43;;;;;;;16.35;3.65;;;;;;;12.61;100.00;98053.09;4923207;29;20039;-82
2022/05/11 04:57:09;;;;;;;14.73;3.40;;;;;;;12.60;100.00;98048.03;4922673;29;20075;-82
2022/05/11 04:59:35;;;;;;;18.33;3.83;;;;;;;12.83;100.00;98052.47;4916822;29;20032;-83
2022/05/11 05:02:03;;;;;;;10.90;3.60;;;;;;;12.69;100.00;98050.06;4922775;29;21161;-83
2022/05/11 05:04:30;;;;;;;13.23;4.68;;;;;;;12.29;100.00;98056.09;4919583;29;20490;-81
2022/05/11 05:06:56;;;;;;;16.67;3.60;;;;;;;12.47;100.00;98064.88;4929305;29;20042;-83
2022/05/11 05:09:21;;;;;;;15.80;3.75;;;;;;;12.51;100.00;98058.94;4927526;29;20031;-84
2022/05/11 05:11:48;;;;;;;13.05;3.50;;;;;;;12.51;100.00;98047.59;4927034;29;20455;-83
2022/05/11 05:14:14;;;;;;;10.50;3.50;;;;;;;12.27;100.00;98066.03;4923900;29;20035;-83
2022/05/11 05:16:40;;;;;;;17.88;4.00;;;;;;;12.48;100.00;98037.53;4920088;29;20413;-82
2022/05/11 05:19:06;;;;;;;16.30;3.63;;;;;;;12.71;100.00;98055.91;4920724;29;20107;-82
2022/05/11 05:21:32;;;;;;;22.90;4.63;;;;;;;12.46;100.00;98055.41;4915340;29;20585;-85
2022/05/11 05:23:59;;;;;;;13.02;3.70;;;;;;;12.37;100.00;98031.25;4920047;29;20377;-82
2022/05/11 05:26:25;;;;;;;14.07;3.60;;;;;;;12.65;100.00;98056.03;4923400;29;20383;-82
2022/05/11 05:31:36;;;;;;;15.63;4.03;;;;;;;12.52;100.00;98033.41;4915881;29;20474;-81
2022/05/11 05:34:02;;;;;;;11.32;3.20;;;;;;;12.68;100.00;98035.31;4918083;29;20032;-82
2022/05/11 05:36:30;;;;;;;12.40;3.25;;;;;;;12.45;100.00;98043.25;4924702;29;20046;-83
2022/05/11 05:38:57;;;;;;;13.20;3.65;;;;;;;12.54;100.00;98041.88;4925522;29;20042;-83
2022/05/11 05:41:24;;;;;;;12.93;3.83;;;;;;;12.71;100.00;98042.75;4922654;29;20023;-81
2022/05/11 05:43:50;;;;;;;16.10;4.28;;;;;;;12.31;100.00;98048.75;4929816;29;20136;-81
2022/05/11 05:46:17;;;;;;;12.18;3.17;;;;;;;12.73;100.00;98052.25;4916715;29;20110;-82
2022/05/11 05:48:43;;;;;;;14.27;4.43;;;;;;;12.85;100.00;98042.50;4924582;29;20055;-82
2022/05/11 05:51:11;;;;;;;12.82;3.95;;;;;;;12.78;100.00;98037.34;4906288;29;20072;-82
2022/05/11 05:53:39;;;;;;;11.88;4.03;;;;;;;12.92;100.00;98037.09;4919088;29;20063;-82
2022/05/11 05:56:06;;;;;;;14.80;4.07;;;;;;;12.86;100.00;98039.59;4903946;29;20042;-83
2022/05/11 05:58:32;;;;;;;10.70;4.68;;;;;;;12.89;100.00;98035.72;4924415;29;20142;-81
2022/05/11 06:00:58;;;;;;;6.20;3.30;;;;;;;12.99;100.00;98040.38;4921630;29;20032;-83
2022/05/11 06:03:27;;;;;;;10.00;3.25;;;;;;;12.73;100.00;98049.59;4926471;29;20115;-82
2022/05/11 06:05:53;;;;;;;9.13;2.92;;;;;;;12.67;100.00;98051.34;4923419;29;20059;-83
2022/05/11 06:08:20;;;;;;;10.32;3.50;;;;;;;12.98;100.00;98038.78;4923012;29;20059;-83
2022/05/11 06:10:46;;;;;;;10.60;3.25;;;;;;;13.19;100.00;98042.59;4923353;29;20390;-83
2022/05/11 06:13:14;;;;;;;14.60;3.95;;;;;;;13.21;100.00;98051.06;4927043;29;20438;-83
2022/05/11 06:15:40;;;;;;;10.80;3.72;;;;;;;13.31;100.00;98033.81;4919897;29;20079;-82
2022/05/11 06:18:07;;;;;;;9.50;3.03;;;;;;;13.41;100.00;98039.28;4918382;29;20114;-82
2022/05/11 06:20:34;;;;;;;5.65;2.80;;;;;;;13.42;100.00;98035.59;4919531;29;20040;-83
2022/05/11 06:23:01;;;;;;;9.50;3.85;;;;;;;13.68;100.00;98054.50;4924590;29;20065;-82
2022/05/11 06:25:27;;;;;;;8.13;3.00;;;;;;;13.64;100.00;98037.56;4922240;29;20035;-83
2022/05/11 06:27:53;;;;;;;8.77;3.80;;;;;;;13.51;100.00;98034.19;4919853;29;20028;-84
2022/05/11 06:30:18;;;;;;;10.25;2.95;;;;;;;13.59;100.00;98037.50;4925268;29;20478;-83
2022/05/11 06:32:44;;;;;;;9.15;3.08;;;;;;;13.70;100.00;98047.16;4922022;29;20069;-83
2022/05/11 06:35:09;;;;;;;11.68;3.22;;;;;;;13.62;100.00;98040.44;4924679;29;20032;-83
2022/05/11 06:37:40;;;;;;;7.95;3.05;;;;;;;13.74;100.00;98042.22;4921029;29;20397;-86
2022/05/11 06:40:06;;;;;;;8.18;2.95;;;;;;;13.87;100.00;98041.09;4921656;29;20036;-83
2022/05/11 06:42:32;;;;;;;7.68;3.25;;;;;;;13.85;100.00;98039.50;4923787;29;20035;-81
2022/05/11 06:44:58;;;;;;;6.40;2.90;;;;;;;13.55;100.00;98040.59;4922210;29;20052;-79
2022/05/11 06:47:24;;;;;;;5.78;2.58;;;;;;;13.74;100.00;98043.00;4926195;29;20098;-81
2022/05/11 06:49:50;;;;;;;8.35;2.55;;;;;;;13.88;100.00;98046.13;4922198;29;20494;-81
2022/05/11 06:52:19;;;;;;;6.45;2.97;;;;;;;14.13;100.00;98043.03;4919786;29;20036;-83
2022/05/11 07:00:16;;;;;;;6.28;2.60;;;;;;;13.38;100.00;98045.03;4921530;29;20036;-81
2022/05/11 07:02:42;;;;;;;6.90;2.90;;;;;;;13.73;100.00;98044.03;4920320;29;20027;-82
2022/05/11 07:05:09;;;;;;;7.25;3.22;;;;;;;13.42;100.00;98043.50;4922508;29;20098;-82
2022/05/11 07:07:35;;;;;;;5.80;2.55;;;;;;;13.70;100.00;98047.97;4920066;29;20040;-82
2022/05/11 07:10:04;;;;;;;6.60;2.22;;;;;;;13.87;100.00;98046.38;4921977;29;20024;-84
2022/05/11 07:12:35;;;;;;;7.22;2.47;;;;;;;13.14;100.00;98055.66;4921148;29;20629;-81
2022/05/11 07:15:02;;;;;;;4.40;2.38;;;;;;;13.05;100.00;98062.34;4905937;29;20051;-83
2022/05/11 07:17:30;;;;;;;5.60;2.08;;;;;;;13.06;100.00;98056.03;4921517;29;20036;-82
2022/05/11 07:19:58;;;;;;;6.30;2.33;;;;;;;12.76;100.00;98059.66;4922059;29;20058;-81
2022/05/11 07:22:26;;;;;;;3.88;2.10;;;;;;;13.01;100.00;98062.00;4923563;29;20482;-81
2022/05/11 07:24:52;;;;;;;8.60;1.98;;;;;;;13.54;100.00;98062.72;4919605;29;20047;-80
2022/05/11 07:27:18;;;;;;;7.68;2.15;;;;;;;12.79;100.00;98057.38;4917561;29;20074;-82
2022/05/11 07:29:44;;;;;;;4.35;1.75;;;;;;;13.20;100.00;98064.47;4920440;29;20055;-83
2022/05/11 07:32:10;;;;;;;5.10;2.45;;;;;;;13.10;100.00;98067.72;4925185;29;20099;-85
2022/05/11 07:34:36;;;;;;;9.80;2.47;;;;;;;13.31;100.00;98065.44;4925914;29;20039;-84
2022/05/11 07:37:02;;;;;;;7.78;2.00;;;;;;;13.36;100.00;98070.81;4928468;29;20035;-83
2022/05/11 07:39:28;;;;;;;4.72;2.17;;;;;;;13.29;100.00;98077.03;4920814;29;20088;-85
2022/05/11 07:41:55;;;;;;;4.75;2.10;;;;;;;13.41;100.00;98076.97;4920904;29;20391;-84
2022/05/11 07:44:21;;;;;;;6.65;2.17;;;;;;;13.20;100.00;98075.00;4917860;29;20452;-82
2022/05/11 07:46:48;;;;;;;4.43;1.80;;;;;;;13.81;100.00;98075.31;4924394;29;20027;-84
2022/05/11 07:49:14;;;;;;;3.25;1.92;;;;;;;13.54;100.00;98075.91;4925256;29;20045;-84
2022/05/11 07:51:41;;;;;;;7.78;2.28;;;;;;;13.45;100.00;98077.34;4917155;29;20085;-83
2022/05/11 07:54:08;;;;;;;2.90;1.30;;;;;;;13.36;100.00;98081.34;4922570;29;20043;-83
2022/05/11 08:02:02;;;;;;;5.22;1.80;;;;;;;14.03;100.00;98077.22;4922233;29;20397;-84
2022/05/11 08:04:28;;;;;;;4.65;1.75;;;;;;;14.02;100.00;98082.72;4931399;29;20032;-83
2022/05/11 08:06:53;;;;;;;2.72;1.67;;;;;;;14.31;100.00;98078.13;4918603;29;20122;-83
2022/05/11 08:09:19;;;;;;;2.80;1.60;;;;;;;14.07;100.00;98080.97;4922865;29;20060;-83
2022/05/11 08:11:47;;;;;;;4.78;1.77;;;;;;;14.37;100.00;98082.47;4923570;29;20067;-83
2022/05/11 08:14:14;;;;;;;2.47;1.33;;;;;;;14.54;100.00;98087.69;4927098;29;20034;-83
2022/05/11 08:16:40;;;;;;;2.88;1.60;;;;;;;14.69;100.00;98079.16;4922440;29;20122;-83
2022/05/11 08:19:07;;;;;;;3.33;1.50;;;;;;;15.06;100.00;98084.91;4923969;29;20041;-84
2022/05/11 08:21:36;;;;;;;3.47;1.30;;;;;;;14.96;100.00;98089.06;4928702;29;20402;-84
2022/05/11 08:24:02;;;;;;;4.38;1.48;;;;;;;15.24;100.00;98084.59;4923534;29;20031;-83
2022/05/11 08:26:28;;;;;;;4.38;1.50;;;;;;;15.34;100.00;98093.69;4924746;29;20399;-84
2022/05/11 08:28:53;;;;;;;2.47;1.48;;;;;;;15.47;100.00;98082.69;4917664;29;20395;-84
2022/05/11 08:34:04;;;;;;;3.72;1.77;;;;;;;15.55;100.00;98078.78;4924879;29;20032;-84
2022/05/11 08:36:30;;;;;;;2.45;1.58;;;;;;;16.15;100.00;98076.13;4925410;29;20106;-84
2022/05/11 08:38:58;;;;;;;1.30;1.20;;;;;;;15.78;100.00;98077.69;4912218;29;20036;-85
2022/05/11 08:41:30;;;;;;;2.88;1.10;;;;;;;15.47;100.00;98077.41;4925843;29;20039;-85
2022/05/11 08:44:07;;;;;;;2.67;1.30;;;;;;;16.02;100.00;98082.66;4927190;29;20478;-87
2022/05/11 08:47:02;;;;;;;3.42;1.45;;;;;;;16.23;100.00;98066.91;4926488;29;20638;-88
2022/05/11 08:49:37;;;;;;;2.72;1.40;;;;;;;16.73;100.00;98074.59;4920430;29;20553;-86
2022/05/11 08:52:05;;;;;;;4.60;1.45;;;;;;;16.45;100.00;98073.91;4913462;29;20036;-88
2022/05/11 08:54:47;;;;;;;1.17;1.08;;;;;;;16.82;100.00;98073.84;4930933;29;20028;-86
2022/05/11 08:57:23;;;;;;;2.13;1.52;;;;;;;17.01;100.00;98061.97;4937624;29;20039;-87
2022/05/11 08:59:57;;;;;;;3.05;1.27;;;;;;;16.80;100.00;98067.19;4883261;29;20051;-87
2022/05/11 09:02:53;;;;;;;2.53;1.20;;;;;;;16.72;100.00;98070.34;4909314;29;20035;-88
2022/05/11 09:05:28;;;;;;;0.80;0.80;;;;;;;17.68;100.00;98064.72;4932799;29;20036;-86
2022/05/11 09:07:55;;;;;;;1.23;1.00;;;;;;;16.49;100.00;98067.03;4922895;29;20114;-87
2022/05/11 09:10:30;;;;;;;1.83;1.10;;;;;;;16.17;100.00;98060.00;4920090;29;20063;-88
2022/05/11 09:13:05;;;;;;;1.42;0.90;;;;;;;16.72;100.00;98073.00;4928764;29;20335;-87
2022/05/11 09:16:16;;;;;;;1.40;1.00;;;;;;;16.84;100.00;98070.91;4919265;29;20485;-86
2022/05/11 09:18:43;;;;;;;2.97;1.17;;;;;;;16.34;100.00;98065.91;4910860;29;20040;-87
2022/05/11 09:21:32;;;;;;;0.65;0.65;;;;;;;16.60;100.00;98076.66;4929450;29;20099;-87
2022/05/11 09:23:58;;;;;;;1.20;0.90;;;;;;;16.67;100.00;98061.28;4907933;29;20024;-88
2022/05/11 09:26:36;;;;;;;1.70;1.05;;;;;;;16.02;100.00;98066.00;4928746;29;20083;-88
2022/05/11 09:29:13;;;;;;;1.40;0.90;;;;;;;16.05;100.00;98071.56;4907628;29;20545;-88
2022/05/11 09:31:39;;;;;;;0.50;0.50;;;;;;;15.33;100.00;98076.19;4915665;29;20133;-87
2022/05/11 09:34:06;;;;;;;1.30;0.65;;;;;;;15.52;100.00;98074.00;4927766;29;20443;-87
2022/05/11 09:36:40;;;;;;;0.63;0.60;;;;;;;15.72;100.00;98073.38;4925283;29;20091;-86
2022/05/11 09:39:15;;;;;;;1.25;0.70;;;;;;;15.08;100.00;98074.88;4917962;29;20178;-88
2022/05/11 09:41:44;;;;;;;1.70;0.60;;;;;;;14.83;100.00;98057.72;4927975;29;20108;-87
2022/05/11 09:44:20;;;;;;;0.50;0.50;;;;;;;13.97;100.00;98078.19;4904800;29;20024;-87
2022/05/11 09:46:46;;;;;;;0.60;0.60;;;;;;;14.22;100.00;98072.47;4927697;29;21236;-83
2022/05/11 09:49:17;;;;;;;0.70;0.70;;;;;;;13.83;100.00;98067.94;4916654;29;20383;-89
2022/05/11 09:51:46;;;;;;;0.60;0.60;;;;;;;13.70;100.00;98073.53;4926163;29;20036;-89
2022/05/11 09:54:18;;;;;;;0.70;0.70;;;;;;;14.31;100.00;98064.94;4925086;29;20043;-88
2022/05/11 09:56:53;;;;;;;0.60;0.60;;;;;;;15.22;100.00;98062.88;4922783;29;20119;-88
2022/05/11 09:59:27;;;;;;;0.77;0.60;;;;;;;14.91;100.00;98040.63;4927759;29;20039;-88
2022/05/11 10:02:32;;;;;;;0.63;0.50;;;;;;;15.11;100.00;98047.97;4924417;29;20047;-88
2022/05/11 10:05:07;;;;;;;2.10;1.52;;;;;;;15.60;100.00;98036.50;4925897;29;20120;-89
2022/05/11 10:07:51;;;;;;;0.73;0.70;;;;;;;15.09;100.00;98039.47;4924749;29;20437;-90
2022/05/11 10:10:36;;;;;;;1.13;0.60;;;;;;;14.90;100.00;98037.19;4923618;29;20094;-89
2022/05/11 10:13:23;;;;;;;1.20;0.95;;;;;;;14.26;100.00;98049.03;4918620;29;20368;-88
2022/05/11 10:21:56;;;;;;;1.83;1.00;;;;;;;14.03;100.00;98039.47;4923255;29;20031;-88
2022/05/11 10:24:43;;;;;;;1.02;0.80;;;;;;;14.22;100.00;98037.38;4921878;29;20031;-89
2022/05/11 10:27:17;;;;;;;1.33;0.90;;;;;;;14.26;100.00;98023.47;4925281;29;20039;-89
2022/05/11 10:30:02;;;;;;;1.45;0.80;;;;;;;14.36;100.00;98043.91;4924929;29;20118;-88
2022/05/11 10:33:22;;;;;;;0.68;0.68;;;;;;;15.48;100.00;98026.09;4923963;29;20040;-89
2022/05/11 10:36:03;;;;;;;1.13;0.80;;;;;;;15.74;100.00;98028.97;4909935;29;20035;-89
2022/05/11 10:38:57;;;;;;;1.77;1.02;;;;;;;15.48;100.00;98026.09;4925520;29;20044;-89
2022/05/11 10:41:25;;;;;;;;;;;;;;;15.25;100.00;98012.16;4920808;29;20075;-89
2022/05/11 10:44:00;;;;;;;0.73;0.73;;;;;;;15.69;100.00;98013.03;4922470;29;20293;-88
2022/05/11 10:46:43;;;;;;;0.85;0.80;;;;;;;16.32;100.00;98001.03;4914241;29;20046;-89
2022/05/11 10:49:39;;;;;;;1.23;0.80;;;;;;;16.49;100.00;98016.72;4919583;29;20075;-90
2022/05/11 10:52:17;;;;;;;1.13;0.90;;;;;;;16.20;100.00;98020.53;4926194;29;20367;-88
2022/05/11 10:55:24;;;;;;;2.22;1.73;;;;;;;15.77;100.00;98017.06;4922986;29;20206;-89
2022/05/11 10:58:05;;;;;;;1.88;0.70;;;;;;;15.96;100.00;98014.88;4934303;29;20051;-89
2022/05/11 11:00:37;;;;;;;1.25;0.73;;;;;;;17.05;100.00;98010.03;4923340;29;20028;-89
2022/05/11 11:03:18;;;;;;;1.25;0.90;;;;;;;16.38;100.00;98006.09;4926102;29;20035;-89
2022/05/11 11:08:58;;;;;;;0.93;0.80;;;;;;;16.37;100.00;98003.69;4926797;29;20043;-90
2022/05/11 11:11:42;;;;;;;2.97;1.00;;;;;;;17.72;100.00;98010.09;4928752;29;20039;-89
2022/05/11 11:14:11;;;;;;;0.90;0.90;;;;;;;16.68;100.00;98012.56;4931313;29;20114;-89
2022/05/11 11:16:39;;;;;;;1.73;0.90;;;;;;;16.48;100.00;97993.94;4929937;29;20086;-89
2022/05/11 11:19:08;;;;;;;2.22;1.45;;;;;;;16.07;100.00;97997.19;4914957;29;20074;-88
2022/05/11 11:21:37;;;;;;;2.67;1.60;;;;;;;16.83;100.00;97987.97;4931627;29;20036;-89
2022/05/11 11:24:17;;;;;;;1.67;1.50;;;;;;;15.96;100.00;97989.19;4928419;29;20047;-89
2022/05/11 11:26:47;;;;;;;1.52;1.00;;;;;;;15.36;100.00;98006.97;4926434;29;20060;-89
2022/05/11 11:29:13;;;;;;;1.00;1.00;;;;;;;15.39;100.00;98001.97;4921070;29;20039;-88
2022/05/11 11:32:00;;;;;;;1.13;1.00;;;;;;;14.84;100.00;98001.19;4926874;29;20035;-89
2022/05/11 11:34:32;;;;;;;0.90;0.90;;;;;;;15.32;100.00;97997.94;4924589;29;20091;-88
2022/05/11 11:37:18;;;;;;;0.95;0.80;;;;;;;15.55;100.00;97992.34;4929966;29;20031;-88
2022/05/11 11:39:44;;;;;;;1.38;0.80;;;;;;;15.39;100.00;97996.69;4924459;29;20371;-89
2022/05/11 11:42:10;;;;;;;2.45;1.00;;;;;;;14.97;100.00;97982.31;4928346;29;20043;-88
2022/05/11 11:44:46;;;;;;;0.88;0.82;;;;;;;15.09;100.00;97991.91;4918100;29;20043;-85
2022/05/11 11:47:26;;;;;;;1.55;0.95;;;;;;;15.58;100.00;97980.44;4925743;29;20439;-88
2022/05/11 11:49:53;;;;;;;1.00;0.90;;;;;;;14.90;100.00;97976.41;4905026;29;20062;-87
2022/05/11 11:52:43;;;;;;;1.38;1.00;;;;;;;15.34;100.00;97991.34;4923759;29;20062;-87
2022/05/11 11:55:18;;;;;;;1.30;1.20;;;;;;;15.20;100.00;97977.75;4930908;29;20111;-88
2022/05/11 11:57:45;;;;;;;3.40;1.17;;;;;;;15.51;100.00;97991.22;4925924;29;20027;-87
2022/05/11 12:00:46;;;;;;;1.95;0.90;;;;;;;15.14;100.00;97990.13;4928524;29;20079;-87
2022/05/11 12:03:18;;;;;;;2.35;1.08;;;;;;;14.83;100.00;97991.66;4930751;29;20602;-88
2022/05/11 12:05:47;;;;;;;2.72;1.10;;;;;;;14.48;100.00;97983.06;4929618;29;20024;-87